sensor_id;sensor_type;location;lat;lon;timestamp;temperature;humidity
46752;DHT22;32497;48.936;9.270;2023-03-26T00:01:29;6.50;88.50
46752;DHT22;32497;48.936;9.270;2023-03-26T00:06:32;6.30;89.00
46752;DHT22;32497;48.936;9.270;2023-03-26T00:11:34;6.20;89.40
46752;DHT22;32497;48.936;9.270;2023-03-26T00:16:36;6.20;89.70
46752;DHT22;32497;48.936;9.270;2023-03-26T00:21:37;6.30;89.30
46752;DHT22;32497;48.936;9.270;2023-03-26T00:26:39;6.20;89.10
46752;DHT22;32497;48.936;9.270;2023-03-26T00:31:41;6.20;89.20
46752;DHT22;32497;48.936;9.270;2023-03-26T00:36:42;6.20;89.00
46752;DHT22;32497;48.936;9.270;2023-03-26T00:41:44;6.40;88.60
46752;DHT22;32497;48.936;9.270;2023-03-26T00:46:46;6.40;89.20
46752;DHT22;32497;48.936;9.270;2023-03-26T00:51:47;6.40;88.40
46752;DHT22;32497;48.936;9.270;2023-03-26T00:56:49;6.20;88.30
46752;DHT22;32497;48.936;9.270;2023-03-26T01:01:51;6.20;88.30
46752;DHT22;32497;48.936;9.270;2023-03-26T01:06:53;6.10;88.40
46752;DHT22;32497;48.936;9.270;2023-03-26T01:11:54;6.10;88.70
46752;DHT22;32497;48.936;9.270;2023-03-26T01:16:59;6.00;88.80
46752;DHT22;32497;48.936;9.270;2023-03-26T01:22:00;5.90;88.80
46752;DHT22;32497;48.936;9.270;2023-03-26T01:27:18;5.90;89.10
46752;DHT22;32497;48.936;9.270;2023-03-26T01:32:30;5.90;89.00
46752;DHT22;32497;48.936;9.270;2023-03-26T01:37:39;5.90;88.90
46752;DHT22;32497;48.936;9.270;2023-03-26T01:42:52;5.80;89.00
46752;DHT22;32497;48.936;9.270;2023-03-26T01:47:55;5.80;89.20
46752;DHT22;32497;48.936;9.270;2023-03-26T01:52:56;5.80;89.40
46752;DHT22;32497;48.936;9.270;2023-03-26T01:58:05;5.80;89.40
46752;DHT22;32497;48.936;9.270;2023-03-26T02:03:19;5.80;89.20
46752;DHT22;32497;48.936;9.270;2023-03-26T02:08:25;6.00;88.90
46752;DHT22;32497;48.936;9.270;2023-03-26T02:13:29;6.10;88.90
46752;DHT22;32497;48.936;9.270;2023-03-26T02:18:30;6.10;88.70
46752;DHT22;32497;48.936;9.270;2023-03-26T02:23:32;6.10;88.60
46752;DHT22;32497;48.936;9.270;2023-03-26T02:28:35;6.10;88.70
46752;DHT22;32497;48.936;9.270;2023-03-26T02:33:37;6.10;88.70
46752;DHT22;32497;48.936;9.270;2023-03-26T02:38:39;6.20;88.50
46752;DHT22;32497;48.936;9.270;2023-03-26T02:43:41;6.20;88.50
46752;DHT22;32497;48.936;9.270;2023-03-26T02:48:47;6.20;88.40
46752;DHT22;32497;48.936;9.270;2023-03-26T02:53:54;6.20;88.30
46752;DHT22;32497;48.936;9.270;2023-03-26T02:59:17;6.20;88.20
46752;DHT22;32497;48.936;9.270;2023-03-26T03:04:21;6.40;87.60
46752;DHT22;32497;48.936;9.270;2023-03-26T03:09:23;6.40;87.20
46752;DHT22;32497;48.936;9.270;2023-03-26T03:14:43;6.50;87.40
46752;DHT22;32497;48.936;9.270;2023-03-26T03:19:45;6.50;87.20
46752;DHT22;32497;48.936;9.270;2023-03-26T03:24:46;6.50;87.00
46752;DHT22;32497;48.936;9.270;2023-03-26T03:29:48;6.60;86.70
46752;DHT22;32497;48.936;9.270;2023-03-26T03:35:16;6.70;86.80
46752;DHT22;32497;48.936;9.270;2023-03-26T03:40:22;6.70;86.50
46752;DHT22;32497;48.936;9.270;2023-03-26T03:45:25;6.70;86.40
46752;DHT22;32497;48.936;9.270;2023-03-26T03:50:26;6.60;86.60
46752;DHT22;32497;48.936;9.270;2023-03-26T03:55:47;6.70;86.50
46752;DHT22;32497;48.936;9.270;2023-03-26T04:00:50;6.70;86.60
46752;DHT22;32497;48.936;9.270;2023-03-26T04:06:10;6.70;86.60
46752;DHT22;32497;48.936;9.270;2023-03-26T04:11:13;6.80;86.70
46752;DHT22;32497;48.936;9.270;2023-03-26T04:16:35;6.80;85.90
46752;DHT22;32497;48.936;9.270;2023-03-26T04:21:37;6.90;85.90
46752;DHT22;32497;48.936;9.270;2023-03-26T04:26:39;6.80;85.90
46752;DHT22;32497;48.936;9.270;2023-03-26T04:31:48;6.90;85.80
46752;DHT22;32497;48.936;9.270;2023-03-26T04:36:51;6.90;85.70
46752;DHT22;32497;48.936;9.270;2023-03-26T04:41:53;6.90;85.30
46752;DHT22;32497;48.936;9.270;2023-03-26T04:46:56;7.00;85.30
46752;DHT22;32497;48.936;9.270;2023-03-26T04:52:09;7.10;85.20
46752;DHT22;32497;48.936;9.270;2023-03-26T04:57:31;7.10;84.80
46752;DHT22;32497;48.936;9.270;2023-03-26T05:03:01;7.00;85.40
46752;DHT22;32497;48.936;9.270;2023-03-26T05:08:02;7.00;85.40
46752;DHT22;32497;48.936;9.270;2023-03-26T05:13:03;7.10;85.80
46752;DHT22;32497;48.936;9.270;2023-03-26T05:18:10;7.10;85.60
46752;DHT22;32497;48.936;9.270;2023-03-26T05:23:22;7.10;85.10
46752;DHT22;32497;48.936;9.270;2023-03-26T05:28:29;7.10;85.60
46752;DHT22;32497;48.936;9.270;2023-03-26T05:33:40;7.10;86.00
46752;DHT22;32497;48.936;9.270;2023-03-26T05:38:44;7.10;86.10
46752;DHT22;32497;48.936;9.270;2023-03-26T05:43:46;7.10;86.00
46752;DHT22;32497;48.936;9.270;2023-03-26T05:48:53;7.20;85.60
46752;DHT22;32497;48.936;9.270;2023-03-26T05:53:55;7.40;84.90
46752;DHT22;32497;48.936;9.270;2023-03-26T05:59:19;7.50;84.90
46752;DHT22;32497;48.936;9.270;2023-03-26T06:04:40;7.50;85.00
46752;DHT22;32497;48.936;9.270;2023-03-26T06:10:03;7.50;84.80
46752;DHT22;32497;48.936;9.270;2023-03-26T06:15:14;7.60;84.50
46752;DHT22;32497;48.936;9.270;2023-03-26T06:20:29;7.60;83.70
46752;DHT22;32497;48.936;9.270;2023-03-26T06:25:30;7.70;83.60
46752;DHT22;32497;48.936;9.270;2023-03-26T06:30:42;7.70;84.00
46752;DHT22;32497;48.936;9.270;2023-03-26T06:36:08;7.80;83.10
46752;DHT22;32497;48.936;9.270;2023-03-26T06:41:10;7.80;81.60
46752;DHT22;32497;48.936;9.270;2023-03-26T06:46:14;7.90;81.10
46752;DHT22;32497;48.936;9.270;2023-03-26T06:51:35;8.00;80.90
46752;DHT22;32497;48.936;9.270;2023-03-26T06:56:42;8.10;80.60
46752;DHT22;32497;48.936;9.270;2023-03-26T07:01:56;8.20;79.40
46752;DHT22;32497;48.936;9.270;2023-03-26T07:07:17;8.40;78.70
46752;DHT22;32497;48.936;9.270;2023-03-26T07:12:57;8.40;78.70
46752;DHT22;32497;48.936;9.270;2023-03-26T07:18:18;8.30;77.60
46752;DHT22;32497;48.936;9.270;2023-03-26T07:23:22;8.20;80.40
46752;DHT22;32497;48.936;9.270;2023-03-26T07:28:58;8.10;80.50
46752;DHT22;32497;48.936;9.270;2023-03-26T07:34:30;8.10;79.60
46752;DHT22;32497;48.936;9.270;2023-03-26T07:39:59;8.10;81.00
46752;DHT22;32497;48.936;9.270;2023-03-26T07:45:28;8.10;82.20
46752;DHT22;32497;48.936;9.270;2023-03-26T07:50:56;7.90;83.20
46752;DHT22;32497;48.936;9.270;2023-03-26T07:56:21;7.80;83.90
46752;DHT22;32497;48.936;9.270;2023-03-26T08:02:01;7.60;85.80
46752;DHT22;32497;48.936;9.270;2023-03-26T08:07:23;7.60;87.90
46752;DHT22;32497;48.936;9.270;2023-03-26T08:12:54;7.40;87.40
46752;DHT22;32497;48.936;9.270;2023-03-26T08:18:02;7.30;87.80
46752;DHT22;32497;48.936;9.270;2023-03-26T08:23:06;7.30;88.70
46752;DHT22;32497;48.936;9.270;2023-03-26T08:28:17;7.40;89.50
46752;DHT22;32497;48.936;9.270;2023-03-26T08:33:20;7.40;89.10
46752;DHT22;32497;48.936;9.270;2023-03-26T08:38:22;7.40;89.00
46752;DHT22;32497;48.936;9.270;2023-03-26T08:43:56;7.30;89.30
46752;DHT22;32497;48.936;9.270;2023-03-26T08:49:15;7.30;90.00
46752;DHT22;32497;48.936;9.270;2023-03-26T08:55:01;7.10;89.60
46752;DHT22;32497;48.936;9.270;2023-03-26T09:00:51;7.10;90.10
46752;DHT22;32497;48.936;9.270;2023-03-26T09:17:22;7.90;90.70
46752;DHT22;32497;48.936;9.270;2023-03-26T09:22:53;7.90;90.10
46752;DHT22;32497;48.936;9.270;2023-03-26T09:33:53;8.20;89.60
46752;DHT22;32497;48.936;9.270;2023-03-26T09:39:01;8.40;90.30
46752;DHT22;32497;48.936;9.270;2023-03-26T09:49:50;10.00;84.80
46752;DHT22;32497;48.936;9.270;2023-03-26T09:55:21;10.20;84.20
46752;DHT22;32497;48.936;9.270;2023-03-26T10:00:34;10.70;83.60
46752;DHT22;32497;48.936;9.270;2023-03-26T10:05:57;10.30;83.40
46752;DHT22;32497;48.936;9.270;2023-03-26T10:11:06;10.20;83.40
46752;DHT22;32497;48.936;9.270;2023-03-26T10:16:17;10.40;82.10
46752;DHT22;32497;48.936;9.270;2023-03-26T10:21:28;10.50;82.80
46752;DHT22;32497;48.936;9.270;2023-03-26T10:26:52;10.60;82.80
46752;DHT22;32497;48.936;9.270;2023-03-26T10:32:05;11.10;82.30
46752;DHT22;32497;48.936;9.270;2023-03-26T10:37:15;11.40;81.90
46752;DHT22;32497;48.936;9.270;2023-03-26T10:48:11;12.30;76.70
46752;DHT22;32497;48.936;9.270;2023-03-26T10:53:24;13.50;74.10
46752;DHT22;32497;48.936;9.270;2023-03-26T10:58:28;13.90;68.40
46752;DHT22;32497;48.936;9.270;2023-03-26T11:03:45;14.70;67.70
46752;DHT22;32497;48.936;9.270;2023-03-26T11:08:52;14.70;65.30
46752;DHT22;32497;48.936;9.270;2023-03-26T11:14:00;14.10;59.60
46752;DHT22;32497;48.936;9.270;2023-03-26T11:19:08;14.20;60.50
46752;DHT22;32497;48.936;9.270;2023-03-26T11:24:35;14.70;56.70
46752;DHT22;32497;48.936;9.270;2023-03-26T11:29:45;14.50;56.70
46752;DHT22;32497;48.936;9.270;2023-03-26T11:34:55;15.20;60.20
46752;DHT22;32497;48.936;9.270;2023-03-26T11:39:58;15.00;53.00
46752;DHT22;32497;48.936;9.270;2023-03-26T11:45:02;14.90;53.30
46752;DHT22;32497;48.936;9.270;2023-03-26T11:50:14;15.00;54.00
46752;DHT22;32497;48.936;9.270;2023-03-26T11:55:17;14.10;57.60
46752;DHT22;32497;48.936;9.270;2023-03-26T12:00:21;12.80;66.10
46752;DHT22;32497;48.936;9.270;2023-03-26T12:05:24;11.20;76.10
46752;DHT22;32497;48.936;9.270;2023-03-26T12:10:29;10.20;84.80
46752;DHT22;32497;48.936;9.270;2023-03-26T12:15:33;10.70;84.10
46752;DHT22;32497;48.936;9.270;2023-03-26T12:20:42;11.40;80.30
46752;DHT22;32497;48.936;9.270;2023-03-26T12:26:03;11.90;79.30
46752;DHT22;32497;48.936;9.270;2023-03-26T12:31:09;12.40;79.50
46752;DHT22;32497;48.936;9.270;2023-03-26T12:41:54;16.00;67.10
46752;DHT22;32497;48.936;9.270;2023-03-26T12:47:13;16.50;59.10
46752;DHT22;32497;48.936;9.270;2023-03-26T12:52:26;15.60;55.30
46752;DHT22;32497;48.936;9.270;2023-03-26T12:57:35;16.60;52.30
46752;DHT22;32497;48.936;9.270;2023-03-26T13:02:53;17.10;51.40
46752;DHT22;32497;48.936;9.270;2023-03-26T13:08:09;18.80;41.80
46752;DHT22;32497;48.936;9.270;2023-03-26T13:18:46;19.80;37.20
46752;DHT22;32497;48.936;9.270;2023-03-26T13:23:53;19.30;39.90
46752;DHT22;32497;48.936;9.270;2023-03-26T13:29:05;17.70;43.10
46752;DHT22;32497;48.936;9.270;2023-03-26T13:34:13;16.90;45.20
46752;DHT22;32497;48.936;9.270;2023-03-26T13:39:24;15.80;45.10
46752;DHT22;32497;48.936;9.270;2023-03-26T13:44:33;15.60;48.20
46752;DHT22;32497;48.936;9.270;2023-03-26T13:49:40;18.20;43.90
46752;DHT22;32497;48.936;9.270;2023-03-26T13:54:45;20.60;39.20
46752;DHT22;32497;48.936;9.270;2023-03-26T13:59:54;20.80;38.70
46752;DHT22;32497;48.936;9.270;2023-03-26T14:05:00;19.90;38.10
46752;DHT22;32497;48.936;9.270;2023-03-26T14:10:07;18.90;39.80
46752;DHT22;32497;48.936;9.270;2023-03-26T14:15:16;17.90;46.70
46752;DHT22;32497;48.936;9.270;2023-03-26T14:20:46;17.90;43.60
46752;DHT22;32497;48.936;9.270;2023-03-26T14:25:59;17.10;45.70
46752;DHT22;32497;48.936;9.270;2023-03-26T14:31:12;16.20;46.40
46752;DHT22;32497;48.936;9.270;2023-03-26T14:36:21;15.50;49.00
46752;DHT22;32497;48.936;9.270;2023-03-26T14:41:28;14.40;51.30
46752;DHT22;32497;48.936;9.270;2023-03-26T14:46:49;13.80;52.10
46752;DHT22;32497;48.936;9.270;2023-03-26T14:51:59;13.70;53.70
46752;DHT22;32497;48.936;9.270;2023-03-26T14:57:30;13.40;55.00
46752;DHT22;32497;48.936;9.270;2023-03-26T15:03:15;13.30;58.20
46752;DHT22;32497;48.936;9.270;2023-03-26T15:25:56;8.10;86.70
46752;DHT22;32497;48.936;9.270;2023-03-26T15:31:11;8.10;86.80
46752;DHT22;32497;48.936;9.270;2023-03-26T15:36:47;8.20;88.40
46752;DHT22;32497;48.936;9.270;2023-03-26T15:42:01;8.10;87.40
46752;DHT22;32497;48.936;9.270;2023-03-26T15:52:44;7.90;87.80
46752;DHT22;32497;48.936;9.270;2023-03-26T15:57:53;7.80;88.00
46752;DHT22;32497;48.936;9.270;2023-03-26T16:03:14;7.70;88.00
46752;DHT22;32497;48.936;9.270;2023-03-26T16:08:24;7.70;88.30
46752;DHT22;32497;48.936;9.270;2023-03-26T16:13:36;7.80;88.40
46752;DHT22;32497;48.936;9.270;2023-03-26T16:18:39;7.90;88.60
46752;DHT22;32497;48.936;9.270;2023-03-26T16:23:53;7.90;87.90
46752;DHT22;32497;48.936;9.270;2023-03-26T16:29:17;8.00;88.60
46752;DHT22;32497;48.936;9.270;2023-03-26T16:34:25;8.10;87.60
46752;DHT22;32497;48.936;9.270;2023-03-26T16:39:39;8.10;87.80
46752;DHT22;32497;48.936;9.270;2023-03-26T16:44:45;8.10;88.00
46752;DHT22;32497;48.936;9.270;2023-03-26T16:49:54;7.90;85.90
46752;DHT22;32497;48.936;9.270;2023-03-26T16:55:02;7.60;85.30
46752;DHT22;32497;48.936;9.270;2023-03-26T17:00:29;7.70;85.40
46752;DHT22;32497;48.936;9.270;2023-03-26T17:05:35;7.60;84.30
46752;DHT22;32497;48.936;9.270;2023-03-26T17:10:40;7.50;82.80
46752;DHT22;32497;48.936;9.270;2023-03-26T17:15:51;7.60;84.20
46752;DHT22;32497;48.936;9.270;2023-03-26T17:21:00;7.60;83.40
46752;DHT22;32497;48.936;9.270;2023-03-26T17:26:06;7.80;85.20
46752;DHT22;32497;48.936;9.270;2023-03-26T17:31:24;7.70;83.50
46752;DHT22;32497;48.936;9.270;2023-03-26T17:36:35;7.80;85.80
46752;DHT22;32497;48.936;9.270;2023-03-26T17:41:51;7.90;85.10
46752;DHT22;32497;48.936;9.270;2023-03-26T17:46:55;7.90;85.10
46752;DHT22;32497;48.936;9.270;2023-03-26T17:51:59;7.80;84.40
46752;DHT22;32497;48.936;9.270;2023-03-26T17:57:03;7.70;85.40
46752;DHT22;32497;48.936;9.270;2023-03-26T18:02:13;7.60;84.50
46752;DHT22;32497;48.936;9.270;2023-03-26T18:13:05;7.50;81.90
46752;DHT22;32497;48.936;9.270;2023-03-26T18:18:12;7.40;81.50
46752;DHT22;32497;48.936;9.270;2023-03-26T18:23:21;7.40;82.10
46752;DHT22;32497;48.936;9.270;2023-03-26T18:28:30;7.40;81.00
46752;DHT22;32497;48.936;9.270;2023-03-26T18:33:42;7.40;80.90
46752;DHT22;32497;48.936;9.270;2023-03-26T18:38:44;7.50;81.90
46752;DHT22;32497;48.936;9.270;2023-03-26T18:43:46;7.30;82.30
46752;DHT22;32497;48.936;9.270;2023-03-26T18:48:49;7.30;82.20
46752;DHT22;32497;48.936;9.270;2023-03-26T18:53:52;7.10;83.10
46752;DHT22;32497;48.936;9.270;2023-03-26T18:58:56;7.10;82.70
46752;DHT22;32497;48.936;9.270;2023-03-26T19:04:00;7.00;83.10
46752;DHT22;32497;48.936;9.270;2023-03-26T19:09:05;6.90;82.80
46752;DHT22;32497;48.936;9.270;2023-03-26T19:14:12;6.90;81.70
46752;DHT22;32497;48.936;9.270;2023-03-26T19:19:30;7.00;82.20
46752;DHT22;32497;48.936;9.270;2023-03-26T19:25:00;6.90;82.20
46752;DHT22;32497;48.936;9.270;2023-03-26T19:30:43;6.90;81.90
46752;DHT22;32497;48.936;9.270;2023-03-26T19:47:42;6.80;80.70
46752;DHT22;32497;48.936;9.270;2023-03-26T19:58:01;6.80;80.50
46752;DHT22;32497;48.936;9.270;2023-03-26T20:03:03;6.80;81.10
46752;DHT22;32497;48.936;9.270;2023-03-26T20:08:12;6.80;80.40
46752;DHT22;32497;48.936;9.270;2023-03-26T20:13:15;6.80;80.00
46752;DHT22;32497;48.936;9.270;2023-03-26T20:18:16;6.80;80.10
46752;DHT22;32497;48.936;9.270;2023-03-26T20:23:18;6.60;80.30
46752;DHT22;32497;48.936;9.270;2023-03-26T20:28:20;6.50;80.90
46752;DHT22;32497;48.936;9.270;2023-03-26T20:33:23;6.40;80.90
46752;DHT22;32497;48.936;9.270;2023-03-26T20:38:24;6.30;81.20
46752;DHT22;32497;48.936;9.270;2023-03-26T20:43:27;6.30;81.20
46752;DHT22;32497;48.936;9.270;2023-03-26T20:48:28;6.20;81.30
46752;DHT22;32497;48.936;9.270;2023-03-26T20:53:29;6.10;81.80
46752;DHT22;32497;48.936;9.270;2023-03-26T20:58:32;6.20;82.60
46752;DHT22;32497;48.936;9.270;2023-03-26T21:03:34;6.20;82.50
46752;DHT22;32497;48.936;9.270;2023-03-26T21:08:36;6.20;83.40
46752;DHT22;32497;48.936;9.270;2023-03-26T21:13:42;6.20;82.60
46752;DHT22;32497;48.936;9.270;2023-03-26T21:18:45;6.20;82.40
46752;DHT22;32497;48.936;9.270;2023-03-26T21:23:51;6.10;82.80
46752;DHT22;32497;48.936;9.270;2023-03-26T21:28:56;6.10;84.20
46752;DHT22;32497;48.936;9.270;2023-03-26T21:33:58;5.90;85.30
46752;DHT22;32497;48.936;9.270;2023-03-26T21:38:59;5.90;85.60
46752;DHT22;32497;48.936;9.270;2023-03-26T21:44:02;5.80;85.90
46752;DHT22;32497;48.936;9.270;2023-03-26T21:49:04;5.70;86.40
46752;DHT22;32497;48.936;9.270;2023-03-26T21:54:14;5.70;89.00
46752;DHT22;32497;48.936;9.270;2023-03-26T21:59:27;5.70;88.60
46752;DHT22;32497;48.936;9.270;2023-03-26T22:04:37;5.70;89.00
46752;DHT22;32497;48.936;9.270;2023-03-26T22:09:39;5.70;89.60
46752;DHT22;32497;48.936;9.270;2023-03-26T22:14:42;5.70;89.90
46752;DHT22;32497;48.936;9.270;2023-03-26T22:19:43;5.70;89.90
46752;DHT22;32497;48.936;9.270;2023-03-26T22:24:44;5.70;90.40
46752;DHT22;32497;48.936;9.270;2023-03-26T22:29:47;5.70;90.40
46752;DHT22;32497;48.936;9.270;2023-03-26T22:34:48;5.70;90.90
46752;DHT22;32497;48.936;9.270;2023-03-26T22:39:49;5.70;90.80
46752;DHT22;32497;48.936;9.270;2023-03-26T22:44:52;5.80;91.30
46752;DHT22;32497;48.936;9.270;2023-03-26T22:49:53;5.90;91.90
46752;DHT22;32497;48.936;9.270;2023-03-26T22:54:54;6.10;92.00
46752;DHT22;32497;48.936;9.270;2023-03-26T22:59:56;6.20;92.00
46752;DHT22;32497;48.936;9.270;2023-03-26T23:04:58;6.30;92.00
46752;DHT22;32497;48.936;9.270;2023-03-26T23:09:59;6.40;92.10
46752;DHT22;32497;48.936;9.270;2023-03-26T23:15:01;6.40;92.20
46752;DHT22;32497;48.936;9.270;2023-03-26T23:20:06;6.40;91.90
46752;DHT22;32497;48.936;9.270;2023-03-26T23:25:07;6.40;91.90
46752;DHT22;32497;48.936;9.270;2023-03-26T23:30:11;6.50;91.80
46752;DHT22;32497;48.936;9.270;2023-03-26T23:35:13;6.50;91.80
46752;DHT22;32497;48.936;9.270;2023-03-26T23:40:14;6.40;91.50
46752;DHT22;32497;48.936;9.270;2023-03-26T23:45:17;6.40;91.60
46752;DHT22;32497;48.936;9.270;2023-03-26T23:50:18;6.40;91.20
46752;DHT22;32497;48.936;9.270;2023-03-26T23:55:19;6.40;91.50
